Time,TemperatureF,DewpointF,PressureIn,WindDirection,WindDirectionDegrees,WindSpeedMPH,WindSpeedGustMPH,Humidity,HourlyPrecipIn,Conditions,Clouds,dailyrainin,SoftwareType,DateUTC
2013-01-12 00:03:00,17.8,15.4,29.48,WNW,303,6.0,8.0,90,0.00,,,0.00,vanprod-2.3,2013-01-12 06:03:00,
2013-01-12 00:07:00,17.5,14.8,29.48,NW,307,5.0,8.0,89,0.00,,,0.00,vanprod-2.3,2013-01-12 06:07:00,
2013-01-12 00:12:00,17.3,14.6,29.49,NNW,332,5.0,5.0,89,0.00,,,0.00,vanprod-2.3,2013-01-12 06:12:00,
2013-01-12 00:17:00,17.3,14.6,29.50,WNW,298,6.0,8.0,89,0.00,,,0.00,vanprod-2.3,2013-01-12 06:17:00,
2013-01-12 00:22:00,17.2,14.3,29.50,NW,312,4.0,4.0,88,0.00,,,0.00,vanprod-2.3,2013-01-12 06:22:00,
2013-01-12 00:27:00,17.2,14.3,29.50,WNW,289,2.0,3.0,88,0.00,,,0.00,vanprod-2.3,2013-01-12 06:27:00,
2013-01-12 00:32:00,17.0,13.8,29.51,West,277,4.0,8.0,87,0.00,,,0.00,vanprod-2.3,2013-01-12 06:32:00,
2013-01-12 00:38:00,16.8,13.6,29.51,WNW,301,5.0,8.0,87,0.00,,,0.00,vanprod-2.3,2013-01-12 06:38:00,
2013-01-12 00:43:00,16.7,13.2,29.52,West,281,5.0,11.0,86,0.00,,,0.00,vanprod-2.3,2013-01-12 06:43:00,
2013-01-12 00:48:00,16.5,13.1,29.52,WNW,292,5.0,13.0,86,0.00,,,0.00,vanprod-2.3,2013-01-12 06:48:00,
2013-01-12 00:53:00,16.2,12.5,29.53,NW,313,5.0,7.0,85,0.00,,,0.00,vanprod-2.3,2013-01-12 06:53:00,
2013-01-12 00:58:00,16.2,12.5,29.53,WNW,292,6.0,8.0,85,0.00,,,0.00,vanprod-2.3,2013-01-12 06:58:00,
2013-01-12 01:02:00,15.9,12.2,29.54,WNW,284,7.0,12.0,85,0.00,,,0.00,vanprod-2.3,2013-01-12 07:02:00,
2013-01-12 01:08:00,15.6,11.9,29.54,NW,312,7.0,12.0,85,0.00,,,0.00,vanprod-2.3,2013-01-12 07:08:00,
2013-01-12 01:13:00,15.4,11.7,29.54,NW,304,7.0,18.0,85,0.00,,,0.00,vanprod-2.3,2013-01-12 07:13:00,
2013-01-12 01:18:00,15.2,11.5,29.54,NW,310,5.0,10.0,85,0.00,,,0.00,vanprod-2.3,2013-01-12 07:18:00,
2013-01-12 01:23:00,15.1,11.7,29.55,WNW,300,4.0,7.0,86,0.00,,,0.00,vanprod-2.3,2013-01-12 07:23:00,
2013-01-12 01:28:00,14.9,11.5,29.55,WNW,301,7.0,14.0,86,0.00,,,0.00,vanprod-2.3,2013-01-12 07:28:00,
2013-01-12 01:33:00,14.9,11.7,29.56,WNW,286,7.0,11.0,87,0.00,,,0.00,vanprod-2.3,2013-01-12 07:33:00,
2013-01-12 01:38:00,14.7,11.5,29.56,NW,304,6.0,16.0,87,0.00,,,0.00,vanprod-2.3,2013-01-12 07:38:00,
2013-01-12 01:43:00,14.6,11.4,29.56,WSW,258,5.0,7.0,87,0.00,,,0.00,vanprod-2.3,2013-01-12 07:43:00,
2013-01-12 01:48:00,14.6,11.2,29.56,NW,306,6.0,13.0,86,0.00,,,0.00,vanprod-2.3,2013-01-12 07:48:00,
2013-01-12 01:53:00,14.4,11.0,29.57,NW,319,5.0,11.0,86,0.00,,,0.00,vanprod-2.3,2013-01-12 07:53:00,
2013-01-12 01:58:00,14.6,11.2,29.57,NW,305,4.0,8.0,86,0.00,,,0.00,vanprod-2.3,2013-01-12 07:58:00,
2013-01-12 02:03:00,14.4,10.7,29.58,WNW,294,7.0,11.0,85,0.00,,,0.00,vanprod-2.3,2013-01-12 08:03:00,
2013-01-12 02:08:00,14.4,10.5,29.58,WNW,301,6.0,8.0,84,0.00,,,0.00,vanprod-2.3,2013-01-12 08:08:00,
2013-01-12 02:13:00,14.4,10.7,29.58,NW,305,5.0,8.0,85,0.00,,,0.00,vanprod-2.3,2013-01-12 08:13:00,
2013-01-12 02:18:00,14.4,10.5,29.59,NW,305,5.0,10.0,84,0.00,,,0.00,vanprod-2.3,2013-01-12 08:18:00,
2013-01-12 02:23:00,14.4,10.5,29.59,WNW,294,4.0,8.0,84,0.00,,,0.00,vanprod-2.3,2013-01-12 08:23:00,
2013-01-12 02:28:00,14.4,10.5,29.60,WNW,302,4.0,8.0,84,0.00,,,0.00,vanprod-2.3,2013-01-12 08:28:00,
2013-01-12 02:33:00,14.4,10.5,29.60,WNW,282,5.0,11.0,84,0.00,,,0.00,vanprod-2.3,2013-01-12 08:33:00,
2013-01-12 02:38:00,14.3,10.4,29.61,WNW,302,6.0,10.0,84,0.00,,,0.00,vanprod-2.3,2013-01-12 08:38:00,
2013-01-12 02:43:00,14.1,9.6,29.61,WNW,294,4.0,7.0,82,0.00,,,0.00,vanprod-2.3,2013-01-12 08:43:00,
2013-01-12 02:48:00,13.9,9.7,29.61,WNW,302,8.0,19.0,83,0.00,,,0.00,vanprod-2.3,2013-01-12 08:48:00,
2013-01-12 02:53:00,13.9,10.0,29.61,NW,308,5.0,10.0,84,0.00,,,0.00,vanprod-2.3,2013-01-12 08:53:00,
2013-01-12 02:58:00,13.8,9.9,29.62,WNW,303,4.0,16.0,84,0.00,,,0.00,vanprod-2.3,2013-01-12 08:58:00,
2013-01-12 03:03:00,13.8,9.9,29.62,NW,315,7.0,8.0,84,0.00,,,0.00,vanprod-2.3,2013-01-12 09:03:00,
2013-01-12 03:08:00,13.6,9.7,29.63,WNW,291,5.0,11.0,84,0.00,,,0.00,vanprod-2.3,2013-01-12 09:08:00,
2013-01-12 03:13:00,13.6,9.9,29.63,WNW,290,6.0,13.0,85,0.00,,,0.00,vanprod-2.3,2013-01-12 09:13:00,
2013-01-12 03:18:00,13.6,9.7,29.64,WNW,298,6.0,16.0,84,0.00,,,0.00,vanprod-2.3,2013-01-12 09:18:00,
2013-01-12 03:23:00,13.6,9.7,29.64,NW,307,5.0,13.0,84,0.00,,,0.00,vanprod-2.3,2013-01-12 09:23:00,
2013-01-12 03:28:00,13.6,9.7,29.64,West,262,4.0,14.0,84,0.00,,,0.00,vanprod-2.3,2013-01-12 09:28:00,
2013-01-12 03:33:00,13.6,9.4,29.65,NW,306,4.0,10.0,83,0.00,,,0.00,vanprod-2.3,2013-01-12 09:33:00,
2013-01-12 03:38:00,13.6,9.1,29.65,West,264,7.0,18.0,82,0.00,,,0.00,vanprod-2.3,2013-01-12 09:38:00,
2013-01-12 03:43:00,13.5,8.8,29.66,WNW,300,4.0,7.0,81,0.00,,,0.00,vanprod-2.3,2013-01-12 09:43:00,
2013-01-12 03:48:00,13.5,8.8,29.66,WNW,295,5.0,8.0,81,0.00,,,0.00,vanprod-2.3,2013-01-12 09:48:00,
2013-01-12 03:53:00,13.3,8.6,29.66,WNW,289,4.0,12.0,81,0.00,,,0.00,vanprod-2.3,2013-01-12 09:53:00,
2013-01-12 03:58:00,13.3,9.1,29.66,WNW,299,5.0,14.0,83,0.00,,,0.00,vanprod-2.3,2013-01-12 09:58:00,
2013-01-12 04:03:00,13.1,8.4,29.67,WNW,288,6.0,10.0,81,0.00,,,0.00,vanprod-2.3,2013-01-12 10:03:00,
2013-01-12 04:08:00,13.0,8.6,29.67,West,268,6.0,12.0,82,0.00,,,0.00,vanprod-2.3,2013-01-12 10:08:00,
2013-01-12 04:13:00,12.8,8.4,29.67,WNW,295,5.0,6.0,82,0.00,,,0.00,vanprod-2.3,2013-01-12 10:13:00,
2013-01-12 04:18:00,12.3,7.3,29.68,West,273,7.0,13.0,80,0.00,,,0.00,vanprod-2.3,2013-01-12 10:18:00,
2013-01-12 04:23:00,11.9,6.9,29.69,NW,306,8.0,14.0,80,0.00,,,0.00,vanprod-2.3,2013-01-12 10:23:00,
2013-01-12 04:28:00,11.8,7.1,29.69,NW,311,7.0,12.0,81,0.00,,,0.00,vanprod-2.3,2013-01-12 10:28:00,
2013-01-12 04:33:00,11.4,6.2,29.69,West,263,6.0,13.0,79,0.00,,,0.00,vanprod-2.3,2013-01-12 10:33:00,
2013-01-12 04:38:00,11.1,6.1,29.69,WNW,282,5.0,7.0,80,0.00,,,0.00,vanprod-2.3,2013-01-12 10:38:00,
2013-01-12 04:43:00,10.9,6.0,29.70,WNW,294,6.0,21.0,80,0.00,,,0.00,vanprod-2.3,2013-01-12 10:43:00,
2013-01-12 04:48:00,10.6,5.1,29.70,NW,307,9.0,12.0,78,0.00,,,0.00,vanprod-2.3,2013-01-12 10:48:00,
2013-01-12 04:53:00,10.4,4.9,29.71,WNW,293,8.0,11.0,78,0.00,,,0.00,vanprod-2.3,2013-01-12 10:53:00,
2013-01-12 04:58:00,10.0,4.5,29.72,WNW,300,7.0,14.0,78,0.00,,,0.00,vanprod-2.3,2013-01-12 10:58:00,
2013-01-12 05:03:00,9.9,4.4,29.72,WNW,302,7.0,12.0,78,0.00,,,0.00,vanprod-2.3,2013-01-12 11:03:00,
2013-01-12 05:08:00,9.9,4.4,29.72,NW,316,4.0,10.0,78,0.00,,,0.00,vanprod-2.3,2013-01-12 11:08:00,
2013-01-12 05:13:00,9.7,4.0,29.72,WNW,294,5.0,7.0,77,0.00,,,0.00,vanprod-2.3,2013-01-12 11:13:00,
2013-01-12 05:18:00,9.7,4.2,29.73,WNW,291,4.0,8.0,78,0.00,,,0.00,vanprod-2.3,2013-01-12 11:18:00,
2013-01-12 05:23:00,9.5,3.8,29.73,NW,315,7.0,8.0,77,0.00,,,0.00,vanprod-2.3,2013-01-12 11:23:00,
2013-01-12 05:28:00,9.5,3.8,29.73,NW,307,5.0,7.0,77,0.00,,,0.00,vanprod-2.3,2013-01-12 11:28:00,
2013-01-12 05:33:00,9.5,3.8,29.73,WNW,294,6.0,12.0,77,0.00,,,0.00,vanprod-2.3,2013-01-12 11:33:00,
2013-01-12 05:38:00,9.5,3.5,29.73,NW,311,6.0,11.0,76,0.00,,,0.00,vanprod-2.3,2013-01-12 11:38:00,
2013-01-12 05:43:00,9.4,3.7,29.74,WNW,291,6.0,12.0,77,0.00,,,0.00,vanprod-2.3,2013-01-12 11:43:00,
2013-01-12 05:48:00,9.4,3.7,29.74,WNW,287,5.0,12.0,77,0.00,,,0.00,vanprod-2.3,2013-01-12 11:48:00,
2013-01-12 05:53:00,9.2,3.5,29.74,NW,305,6.0,10.0,77,0.00,,,0.00,vanprod-2.3,2013-01-12 11:53:00,
2013-01-12 05:58:00,9.2,3.5,29.75,WNW,294,6.0,16.0,77,0.00,,,0.00,vanprod-2.3,2013-01-12 11:58:00,
2013-01-12 06:03:00,9.0,2.7,29.75,NW,306,5.0,12.0,75,0.00,,,0.00,vanprod-2.3,2013-01-12 12:03:00,
2013-01-12 06:08:00,9.0,2.7,29.76,WNW,284,5.0,12.0,75,0.00,,,0.00,vanprod-2.3,2013-01-12 12:08:00,
2013-01-12 06:13:00,9.0,3.0,29.76,West,279,6.0,10.0,76,0.00,,,0.00,vanprod-2.3,2013-01-12 12:13:00,
2013-01-12 06:18:00,9.0,3.0,29.77,WNW,288,3.0,7.0,76,0.00,,,0.00,vanprod-2.3,2013-01-12 12:18:00,
2013-01-12 06:23:00,8.8,2.8,29.77,WNW,295,6.0,12.0,76,0.00,,,0.00,vanprod-2.3,2013-01-12 12:23:00,
2013-01-12 06:27:00,8.8,2.5,29.77,WNW,301,5.0,7.0,75,0.00,,,0.00,vanprod-2.3,2013-01-12 12:27:00,
2013-01-12 06:32:00,8.8,2.5,29.78,WNW,286,6.0,17.0,75,0.00,,,0.00,vanprod-2.3,2013-01-12 12:32:00,
2013-01-12 06:38:00,8.8,2.5,29.78,WNW,293,5.0,8.0,75,0.00,,,0.00,vanprod-2.3,2013-01-12 12:38:00,
2013-01-12 06:42:00,8.7,2.1,29.79,WNW,282,6.0,12.0,74,0.00,,,0.00,vanprod-2.3,2013-01-12 12:42:00,
2013-01-12 06:47:00,8.7,2.1,29.79,NW,306,3.0,11.0,74,0.00,,,0.00,vanprod-2.3,2013-01-12 12:47:00,
2013-01-12 06:52:00,8.3,1.4,29.79,WNW,300,6.0,13.0,73,0.00,,,0.00,vanprod-2.3,2013-01-12 12:52:00,
2013-01-12 06:57:00,8.1,1.5,29.80,NW,317,6.0,8.0,74,0.00,,,0.00,vanprod-2.3,2013-01-12 12:57:00,
2013-01-12 07:02:00,7.9,1.3,29.80,WNW,285,5.0,7.0,74,0.00,,,0.00,vanprod-2.3,2013-01-12 13:02:00,
2013-01-12 07:07:00,7.8,1.0,29.81,WNW,293,5.0,11.0,73,0.00,,,0.00,vanprod-2.3,2013-01-12 13:07:00,
2013-01-12 07:12:00,7.6,1.1,29.80,NNW,328,4.0,6.0,74,0.00,,,0.00,vanprod-2.3,2013-01-12 13:12:00,
2013-01-12 07:17:00,7.4,0.9,29.81,WNW,298,5.0,8.0,74,0.00,,,0.00,vanprod-2.3,2013-01-12 13:17:00,
2013-01-12 07:22:00,7.2,0.4,29.80,NW,309,6.0,11.0,73,0.00,,,0.00,vanprod-2.3,2013-01-12 13:22:00,
2013-01-12 07:27:00,7.1,0.6,29.81,West,274,4.0,8.0,74,0.00,,,0.00,vanprod-2.3,2013-01-12 13:27:00,
2013-01-12 07:32:00,7.1,0.6,29.82,WNW,302,6.0,11.0,74,0.00,,,0.00,vanprod-2.3,2013-01-12 13:32:00,
2013-01-12 07:37:00,6.9,0.4,29.82,WNW,301,6.0,6.0,74,0.00,,,0.00,vanprod-2.3,2013-01-12 13:37:00,
2013-01-12 07:42:00,6.9,0.4,29.82,NW,305,5.0,7.0,74,0.00,,,0.00,vanprod-2.3,2013-01-12 13:42:00,
2013-01-12 07:48:00,6.7,0.2,29.82,NW,305,3.0,5.0,74,0.00,,,0.00,vanprod-2.3,2013-01-12 13:48:00,
2013-01-12 07:52:00,6.7,0.2,29.83,NW,311,4.0,9.0,74,0.00,,,0.00,vanprod-2.3,2013-01-12 13:52:00,
2013-01-12 07:57:00,6.7,0.2,29.84,West,278,4.0,6.0,74,0.00,,,0.00,vanprod-2.3,2013-01-12 13:57:00,
2013-01-12 08:02:00,6.5,0.0,29.84,WNW,295,4.0,6.0,74,0.00,,,0.00,vanprod-2.3,2013-01-12 14:02:00,
2013-01-12 08:07:00,6.5,0.0,29.85,NW,307,2.0,6.0,74,0.00,,,0.00,vanprod-2.3,2013-01-12 14:07:00,
2013-01-12 08:12:00,6.4,-0.1,29.85,NW,316,4.0,4.0,74,0.00,,,0.00,vanprod-2.3,2013-01-12 14:12:00,
2013-01-12 08:17:00,6.4,-0.4,29.86,NNW,330,3.0,3.0,73,0.00,,,0.00,vanprod-2.3,2013-01-12 14:17:00,
2013-01-12 08:22:00,6.4,-0.4,29.86,NW,319,2.0,2.0,73,0.00,,,0.00,vanprod-2.3,2013-01-12 14:22:00,
2013-01-12 08:27:00,6.4,-0.1,29.86,NW,324,2.0,5.0,74,0.00,,,0.00,vanprod-2.3,2013-01-12 14:27:00,
2013-01-12 08:32:00,6.4,0.2,29.87,WNW,291,1.0,1.0,75,0.00,,,0.00,vanprod-2.3,2013-01-12 14:32:00,
2013-01-12 08:37:00,6.2,0.0,29.88,West,278,4.0,10.0,75,0.00,,,0.00,vanprod-2.3,2013-01-12 14:37:00,
2013-01-12 08:42:00,6.2,-0.3,29.88,WNW,290,5.0,10.0,74,0.00,,,0.00,vanprod-2.3,2013-01-12 14:42:00,
2013-01-12 08:47:00,6.2,-0.6,29.88,WNW,300,5.0,7.0,73,0.00,,,0.00,vanprod-2.3,2013-01-12 14:47:00,
2013-01-12 08:52:00,6.2,-0.9,29.88,West,274,4.0,12.0,72,0.00,,,0.00,vanprod-2.3,2013-01-12 14:52:00,
2013-01-12 08:57:00,6.4,-0.7,29.88,WNW,284,3.0,3.0,72,0.00,,,0.00,vanprod-2.3,2013-01-12 14:57:00,
2013-01-12 09:02:00,6.4,-0.4,29.88,WNW,283,2.0,3.0,73,0.00,,,0.00,vanprod-2.3,2013-01-12 15:02:00,
2013-01-12 09:07:00,6.4,-0.4,29.89,WNW,293,4.0,5.0,73,0.00,,,0.00,vanprod-2.3,2013-01-12 15:07:00,
2013-01-12 09:12:00,6.4,-0.7,29.89,NW,309,4.0,11.0,72,0.00,,,0.00,vanprod-2.3,2013-01-12 15:12:00,
2013-01-12 09:17:00,6.4,-0.7,29.89,WNW,283,4.0,11.0,72,0.00,,,0.00,vanprod-2.3,2013-01-12 15:17:00,
2013-01-12 09:22:00,6.2,-1.2,29.90,West,281,3.0,12.0,71,0.00,,,0.00,vanprod-2.3,2013-01-12 15:22:00,
2013-01-12 09:27:00,6.4,-1.0,29.90,NW,316,3.0,6.0,71,0.00,,,0.00,vanprod-2.3,2013-01-12 15:27:00,
2013-01-12 09:32:00,6.4,-1.3,29.91,WNW,300,4.0,7.0,70,0.00,,,0.00,vanprod-2.3,2013-01-12 15:32:00,
2013-01-12 09:37:00,6.4,-1.3,29.90,NW,309,6.0,16.0,70,0.00,,,0.00,vanprod-2.3,2013-01-12 15:37:00,
2013-01-12 09:42:00,6.2,-1.5,29.91,NW,310,3.0,5.0,70,0.00,,,0.00,vanprod-2.3,2013-01-12 15:42:00,
2013-01-12 09:47:00,6.2,-1.8,29.91,NNW,327,5.0,6.0,69,0.00,,,0.00,vanprod-2.3,2013-01-12 15:47:00,
2013-01-12 09:52:00,6.2,-1.5,29.91,West,263,4.0,7.0,70,0.00,,,0.00,vanprod-2.3,2013-01-12 15:52:00,
2013-01-12 09:57:00,6.2,-1.5,29.91,West,277,6.0,12.0,70,0.00,,,0.00,vanprod-2.3,2013-01-12 15:57:00,
2013-01-12 10:02:00,6.2,-1.5,29.92,NW,311,3.0,5.0,70,0.00,,,0.00,vanprod-2.3,2013-01-12 16:02:00,
2013-01-12 10:07:00,6.4,-1.3,29.92,NW,317,6.0,16.0,70,0.00,,,0.00,vanprod-2.3,2013-01-12 16:07:00,
2013-01-12 10:12:00,6.4,-1.3,29.92,NW,311,4.0,8.0,70,0.00,,,0.00,vanprod-2.3,2013-01-12 16:12:00,
2013-01-12 10:17:00,6.5,-1.2,29.92,WNW,294,5.0,13.0,70,0.00,,,0.00,vanprod-2.3,2013-01-12 16:17:00,
2013-01-12 10:22:00,6.5,-1.8,29.93,NNW,343,5.0,7.0,68,0.00,,,0.00,vanprod-2.3,2013-01-12 16:22:00,
2013-01-12 10:27:00,6.5,-1.8,29.93,NW,311,5.0,8.0,68,0.00,,,0.00,vanprod-2.3,2013-01-12 16:27:00,
2013-01-12 10:32:00,6.5,-1.8,29.94,WNW,287,5.0,6.0,68,0.00,,,0.00,vanprod-2.3,2013-01-12 16:32:00,
2013-01-12 10:37:00,6.7,-1.3,29.94,NW,325,4.0,11.0,69,0.00,,,0.00,vanprod-2.3,2013-01-12 16:37:00,
2013-01-12 10:42:00,6.5,-1.8,29.94,WNW,282,6.0,12.0,68,0.00,,,0.00,vanprod-2.3,2013-01-12 16:42:00,
2013-01-12 10:47:00,6.7,-1.9,29.95,NW,304,7.0,7.0,67,0.00,,,0.00,vanprod-2.3,2013-01-12 16:47:00,
2013-01-12 10:52:00,6.9,-1.4,29.95,WNW,286,3.0,7.0,68,0.00,,,0.00,vanprod-2.3,2013-01-12 16:52:00,
2013-01-12 10:57:00,7.1,-1.5,29.95,NNW,335,6.0,7.0,67,0.00,,,0.00,vanprod-2.3,2013-01-12 16:57:00,
2013-01-12 11:02:00,7.1,-1.2,29.95,WNW,299,3.0,8.0,68,0.00,,,0.00,vanprod-2.3,2013-01-12 17:02:00,
2013-01-12 11:07:00,7.1,-1.5,29.95,NW,307,6.0,10.0,67,0.00,,,0.00,vanprod-2.3,2013-01-12 17:07:00,
2013-01-12 11:12:00,7.2,-1.8,29.96,NW,315,6.0,12.0,66,0.00,,,0.00,vanprod-2.3,2013-01-12 17:12:00,
2013-01-12 11:17:00,7.2,-1.8,29.95,WNW,296,4.0,7.0,66,0.00,,,0.00,vanprod-2.3,2013-01-12 17:17:00,
2013-01-12 11:22:00,7.4,-1.6,29.95,NW,322,5.0,11.0,66,0.00,,,0.00,vanprod-2.3,2013-01-12 17:22:00,
2013-01-12 11:27:00,7.4,-1.2,29.96,NW,311,4.0,8.0,67,0.00,,,0.00,vanprod-2.3,2013-01-12 17:27:00,
2013-01-12 11:32:00,7.4,-1.2,29.96,West,272,6.0,10.0,67,0.00,,,0.00,vanprod-2.3,2013-01-12 17:32:00,
2013-01-12 11:37:00,7.1,-1.8,29.97,NW,304,6.0,10.0,66,0.00,,,0.00,vanprod-2.3,2013-01-12 17:37:00,
2013-01-12 11:42:00,6.9,-1.7,29.97,NW,309,4.0,6.0,67,0.00,,,0.00,vanprod-2.3,2013-01-12 17:42:00,
2013-01-12 11:47:00,7.2,-1.4,29.97,WNW,287,4.0,8.0,67,0.00,,,0.00,vanprod-2.3,2013-01-12 17:47:00,
2013-01-12 11:52:00,7.8,-1.2,29.97,West,264,6.0,12.0,66,0.00,,,0.00,vanprod-2.3,2013-01-12 17:52:00,
2013-01-12 11:57:00,7.6,-1.1,29.97,West,280,4.0,7.0,67,0.00,,,0.00,vanprod-2.3,2013-01-12 17:57:00,
2013-01-12 12:02:00,7.8,-0.5,29.97,WNW,288,2.0,3.0,68,0.00,,,0.00,vanprod-2.3,2013-01-12 18:02:00,
2013-01-12 12:07:00,7.8,-0.5,29.97,WNW,290,3.0,6.0,68,0.00,,,0.00,vanprod-2.3,2013-01-12 18:07:00,
2013-01-12 12:12:00,7.8,-0.5,29.97,WNW,296,3.0,8.0,68,0.00,,,0.00,vanprod-2.3,2013-01-12 18:12:00,
2013-01-12 12:17:00,7.4,-1.2,29.97,WNW,299,6.0,12.0,67,0.00,,,0.00,vanprod-2.3,2013-01-12 18:17:00,
2013-01-12 12:22:00,7.2,-1.4,29.97,NW,306,5.0,8.0,67,0.00,,,0.00,vanprod-2.3,2013-01-12 18:22:00,
2013-01-12 12:27:00,7.4,-1.2,29.96,NW,311,4.0,11.0,67,0.00,,,0.00,vanprod-2.3,2013-01-12 18:27:00,
2013-01-12 12:32:00,7.9,-0.8,29.96,WNW,297,4.0,8.0,67,0.00,,,0.00,vanprod-2.3,2013-01-12 18:32:00,
2013-01-12 12:37:00,7.8,-1.2,29.96,NNW,332,5.0,5.0,66,0.00,,,0.00,vanprod-2.3,2013-01-12 18:37:00,
2013-01-12 12:42:00,7.6,-1.7,29.96,WNW,299,5.0,7.0,65,0.00,,,0.00,vanprod-2.3,2013-01-12 18:42:00,
2013-01-12 12:47:00,7.4,-1.9,29.96,NW,308,7.0,12.0,65,0.00,,,0.00,vanprod-2.3,2013-01-12 18:47:00,
2013-01-12 12:52:00,6.9,-1.1,29.96,WNW,296,4.0,10.0,69,0.00,,,0.00,vanprod-2.3,2013-01-12 18:52:00,
2013-01-12 12:57:00,6.7,-1.3,29.96,NW,308,4.0,8.0,69,0.00,,,0.00,vanprod-2.3,2013-01-12 18:57:00,
2013-01-12 13:02:00,6.7,-1.6,29.95,WNW,290,4.0,6.0,68,0.00,,,0.00,vanprod-2.3,2013-01-12 19:02:00,
2013-01-12 13:07:00,6.9,-2.0,29.96,WNW,292,6.0,7.0,66,0.00,,,0.00,vanprod-2.3,2013-01-12 19:07:00,
2013-01-12 13:12:00,6.9,-2.4,29.97,WNW,302,4.0,5.0,65,0.00,,,0.00,vanprod-2.3,2013-01-12 19:12:00,
2013-01-12 13:17:00,7.2,-1.8,29.96,NW,323,5.0,7.0,66,0.00,,,0.00,vanprod-2.3,2013-01-12 19:17:00,
2013-01-12 13:22:00,7.9,-1.4,29.97,WNW,282,5.0,7.0,65,0.00,,,0.00,vanprod-2.3,2013-01-12 19:22:00,
2013-01-12 13:27:00,8.3,-0.7,29.97,WNW,299,4.0,6.0,66,0.00,,,0.00,vanprod-2.3,2013-01-12 19:27:00,
2013-01-12 13:32:00,8.1,-0.9,29.97,WNW,299,3.0,7.0,66,0.00,,,0.00,vanprod-2.3,2013-01-12 19:32:00,
2013-01-12 13:37:00,7.8,-0.9,29.98,West,276,5.0,8.0,67,0.00,,,0.00,vanprod-2.3,2013-01-12 19:37:00,
2013-01-12 13:42:00,7.8,-1.2,29.98,NW,312,4.0,4.0,66,0.00,,,0.00,vanprod-2.3,2013-01-12 19:42:00,
2013-01-12 13:47:00,8.1,-1.2,29.98,WNW,289,5.0,8.0,65,0.00,,,0.00,vanprod-2.3,2013-01-12 19:47:00,
2013-01-12 13:52:00,8.3,-1.7,29.98,NW,313,7.0,11.0,63,0.00,,,0.00,vanprod-2.3,2013-01-12 19:52:00,
2013-01-12 13:57:00,8.3,-1.0,29.98,WNW,299,4.0,11.0,65,0.00,,,0.00,vanprod-2.3,2013-01-12 19:57:00,
2013-01-12 14:02:00,8.1,-1.9,29.98,NW,313,5.0,6.0,63,0.00,,,0.00,vanprod-2.3,2013-01-12 20:02:00,
2013-01-12 14:07:00,7.9,-1.4,29.99,WNW,300,4.0,8.0,65,0.00,,,0.00,vanprod-2.3,2013-01-12 20:07:00,
2013-01-12 14:12:00,7.9,-1.1,29.98,NW,320,6.0,9.0,66,0.00,,,0.00,vanprod-2.3,2013-01-12 20:12:00,
2013-01-12 14:17:00,7.9,-1.4,29.99,NW,315,6.0,10.0,65,0.00,,,0.00,vanprod-2.3,2013-01-12 20:17:00,
2013-01-12 14:22:00,8.1,-0.9,29.99,WNW,300,4.0,5.0,66,0.00,,,0.00,vanprod-2.3,2013-01-12 20:22:00,
2013-01-12 14:27:00,8.3,0.2,30.00,WNW,292,2.0,3.0,69,0.00,,,0.00,vanprod-2.3,2013-01-12 20:27:00,
2013-01-12 14:32:00,8.3,0.2,30.00,NW,322,2.0,3.0,69,0.00,,,0.00,vanprod-2.3,2013-01-12 20:32:00,
2013-01-12 14:37:00,8.1,-0.6,30.00,NW,311,6.0,9.0,67,0.00,,,0.00,vanprod-2.3,2013-01-12 20:37:00,
2013-01-12 14:42:00,8.5,0.1,30.00,WNW,300,3.0,3.0,68,0.00,,,0.00,vanprod-2.3,2013-01-12 20:42:00,
2013-01-12 14:47:00,8.7,-0.6,30.00,NW,311,4.0,5.0,65,0.00,,,0.00,vanprod-2.3,2013-01-12 20:47:00,
2013-01-12 14:52:00,8.7,-0.3,30.00,NW,323,4.0,10.0,66,0.00,,,0.00,vanprod-2.3,2013-01-12 20:52:00,
2013-01-12 14:57:00,8.7,-0.6,30.00,NW,325,4.0,4.0,65,0.00,,,0.00,vanprod-2.3,2013-01-12 20:57:00,
2013-01-12 15:02:00,8.8,-0.2,30.00,NW,308,4.0,5.0,66,0.00,,,0.00,vanprod-2.3,2013-01-12 21:02:00,
2013-01-12 15:07:00,9.2,-0.2,30.00,NNW,336,4.0,6.0,65,0.00,,,0.00,vanprod-2.3,2013-01-12 21:07:00,
2013-01-12 15:12:00,9.2,-0.2,30.00,WNW,292,6.0,8.0,65,0.00,,,0.00,vanprod-2.3,2013-01-12 21:12:00,
2013-01-12 15:17:00,8.8,0.7,30.00,NW,305,2.0,2.0,69,0.00,,,0.00,vanprod-2.3,2013-01-12 21:17:00,
2013-01-12 15:22:00,8.3,0.5,30.01,North,350,2.0,3.0,70,0.00,,,0.00,vanprod-2.3,2013-01-12 21:22:00,
2013-01-12 15:27:00,7.9,0.2,30.02,NNW,331,2.0,10.0,70,0.00,,,0.00,vanprod-2.3,2013-01-12 21:27:00,
2013-01-12 15:32:00,7.4,0.0,30.02,North,352,5.0,8.0,71,0.00,,,0.00,vanprod-2.3,2013-01-12 21:32:00,
2013-01-12 15:37:00,7.2,0.4,30.02,NNW,335,5.0,7.0,73,0.00,,,0.00,vanprod-2.3,2013-01-12 21:37:00,
2013-01-12 15:42:00,7.2,0.1,30.01,North,350,3.0,3.0,72,0.00,,,0.00,vanprod-2.3,2013-01-12 21:42:00,
2013-01-12 15:47:00,7.6,0.8,30.02,NNW,328,2.0,3.0,73,0.00,,,0.00,vanprod-2.3,2013-01-12 21:47:00,
2013-01-12 15:52:00,7.6,0.2,30.02,NNW,347,3.0,5.0,71,0.00,,,0.00,vanprod-2.3,2013-01-12 21:52:00,
2013-01-12 15:57:00,7.4,-0.3,30.02,North,356,2.0,2.0,70,0.00,,,0.00,vanprod-2.3,2013-01-12 21:57:00,
2013-01-12 16:02:00,7.2,-0.5,30.02,NW,317,4.0,7.0,70,0.00,,,0.00,vanprod-2.3,2013-01-12 22:02:00,
2013-01-12 16:07:00,7.2,-0.5,30.02,NW,313,4.0,7.0,70,0.00,,,0.00,vanprod-2.3,2013-01-12 22:07:00,
2013-01-12 16:12:00,7.2,-0.2,30.01,NW,323,5.0,7.0,71,0.00,,,0.00,vanprod-2.3,2013-01-12 22:12:00,
2013-01-12 16:17:00,7.1,-0.6,30.01,WNW,295,4.0,4.0,70,0.00,,,0.00,vanprod-2.3,2013-01-12 22:17:00,
2013-01-12 16:22:00,6.7,-1.6,30.01,NNW,340,5.0,7.0,68,0.00,,,0.00,vanprod-2.3,2013-01-12 22:22:00,
2013-01-12 16:27:00,6.7,-1.3,30.01,NW,320,4.0,7.0,69,0.00,,,0.00,vanprod-2.3,2013-01-12 22:27:00,
2013-01-12 16:32:00,6.5,-0.6,30.01,NNW,330,4.0,7.0,72,0.00,,,0.00,vanprod-2.3,2013-01-12 22:32:00,
2013-01-12 16:37:00,6.2,-0.9,30.01,NNW,333,3.0,8.0,72,0.00,,,0.00,vanprod-2.3,2013-01-12 22:37:00,
2013-01-12 16:42:00,6.0,-1.4,30.01,North,352,4.0,6.0,71,0.00,,,0.00,vanprod-2.3,2013-01-12 22:42:00,
2013-01-12 16:47:00,6.0,-1.1,30.02,NW,315,1.0,2.0,72,0.00,,,0.00,vanprod-2.3,2013-01-12 22:47:00,
2013-01-12 16:52:00,5.8,-1.6,30.02,NNW,346,4.0,6.0,71,0.00,,,0.00,vanprod-2.3,2013-01-12 22:52:00,
2013-01-12 16:57:00,5.6,-2.1,30.03,NNW,327,4.0,8.0,70,0.00,,,0.00,vanprod-2.3,2013-01-12 22:57:00,
2013-01-12 17:02:00,5.6,-1.8,30.03,NW,313,3.0,3.0,71,0.00,,,0.00,vanprod-2.3,2013-01-12 23:02:00,
2013-01-12 17:07:00,5.5,-2.1,30.03,NNW,332,4.0,6.0,70,0.00,,,0.00,vanprod-2.3,2013-01-12 23:07:00,
2013-01-12 17:12:00,5.5,-2.1,30.03,WNW,292,2.0,2.0,70,0.00,,,0.00,vanprod-2.3,2013-01-12 23:12:00,
2013-01-12 17:17:00,5.3,-2.0,30.03,NW,318,3.0,3.0,71,0.00,,,0.00,vanprod-2.3,2013-01-12 23:17:00,
2013-01-12 17:22:00,5.3,-2.0,30.04,NNW,337,2.0,3.0,71,0.00,,,0.00,vanprod-2.3,2013-01-12 23:22:00,
2013-01-12 17:27:00,5.3,-1.7,30.05,NNW,337,0.0,0.0,72,0.00,,,0.00,vanprod-2.3,2013-01-12 23:27:00,
2013-01-12 17:32:00,5.3,-1.7,30.05,NNW,337,1.0,3.0,72,0.00,,,0.00,vanprod-2.3,2013-01-12 23:32:00,
2013-01-12 17:37:00,5.3,-1.7,30.05,NW,326,2.0,3.0,72,0.00,,,0.00,vanprod-2.3,2013-01-12 23:37:00,
2013-01-12 17:42:00,5.3,-1.7,30.08,NNW,329,0.0,1.0,72,0.00,,,0.00,vanprod-2.3,2013-01-12 23:42:00,
2013-01-12 17:47:00,5.3,-1.7,30.07,NNW,329,2.0,2.0,72,0.00,,,0.00,vanprod-2.3,2013-01-12 23:47:00,
2013-01-12 17:52:00,5.3,-2.0,30.06,North,359,2.0,4.0,71,0.00,,,0.00,vanprod-2.3,2013-01-12 23:52:00,
2013-01-12 17:57:00,5.3,-1.7,30.07,North,359,2.0,3.0,72,0.00,,,0.00,vanprod-2.3,2013-01-12 23:57:00,
2013-01-12 18:02:00,5.1,-2.2,30.06,North,359,3.0,3.0,71,0.00,,,0.00,vanprod-2.3,2013-01-13 00:02:00,
2013-01-12 18:07:00,5.1,-1.9,30.07,WNW,303,2.0,3.0,72,0.00,,,0.00,vanprod-2.3,2013-01-13 00:07:00,
2013-01-12 18:12:00,5.1,-2.2,30.06,North,350,3.0,3.0,71,0.00,,,0.00,vanprod-2.3,2013-01-13 00:12:00,
2013-01-12 18:17:00,5.1,-1.6,30.07,North,350,1.0,3.0,73,0.00,,,0.00,vanprod-2.3,2013-01-13 00:17:00,
2013-01-12 18:22:00,5.1,-1.6,30.07,WNW,299,1.0,1.0,73,0.00,,,0.00,vanprod-2.3,2013-01-13 00:22:00,
2013-01-12 18:27:00,4.9,-1.8,30.07,NW,306,3.0,4.0,73,0.00,,,0.00,vanprod-2.3,2013-01-13 00:27:00,
2013-01-12 18:32:00,4.9,-1.6,30.06,North,357,5.0,10.0,74,0.00,,,0.00,vanprod-2.3,2013-01-13 00:32:00,
2013-01-12 18:37:00,4.5,-1.9,30.06,NNW,334,3.0,5.0,74,0.00,,,0.00,vanprod-2.3,2013-01-13 00:37:00,
2013-01-12 18:42:00,4.5,-1.7,30.07,NNW,348,3.0,5.0,75,0.00,,,0.00,vanprod-2.3,2013-01-13 00:42:00,
2013-01-12 18:47:00,4.3,-1.9,30.07,North,360,2.0,2.0,75,0.00,,,0.00,vanprod-2.3,2013-01-13 00:47:00,
2013-01-12 18:52:00,4.3,-1.6,30.07,North,358,2.0,6.0,76,0.00,,,0.00,vanprod-2.3,2013-01-13 00:52:00,
2013-01-12 18:57:00,4.3,-1.3,30.07,North,354,3.0,5.0,77,0.00,,,0.00,vanprod-2.3,2013-01-13 00:57:00,
2013-01-12 19:02:00,4.2,-1.4,30.07,WNW,299,1.0,1.0,77,0.00,,,0.00,vanprod-2.3,2013-01-13 01:02:00,
2013-01-12 19:07:00,4.2,-1.1,30.08,WNW,299,1.0,3.0,78,0.00,,,0.00,vanprod-2.3,2013-01-13 01:07:00,
2013-01-12 19:12:00,4.2,-1.1,30.07,WNW,301,2.0,2.0,78,0.00,,,0.00,vanprod-2.3,2013-01-13 01:12:00,
2013-01-12 19:17:00,4.0,-1.3,30.07,North,359,2.0,2.0,78,0.00,,,0.00,vanprod-2.3,2013-01-13 01:17:00,
2013-01-12 19:22:00,4.0,-1.1,30.07,North,354,2.0,2.0,79,0.00,,,0.00,vanprod-2.3,2013-01-13 01:22:00,
2013-01-12 19:27:00,4.0,-1.1,30.08,North,352,2.0,3.0,79,0.00,,,0.00,vanprod-2.3,2013-01-13 01:27:00,
2013-01-12 19:32:00,4.0,-1.1,30.09,WNW,301,3.0,7.0,79,0.00,,,0.00,vanprod-2.3,2013-01-13 01:32:00,
2013-01-12 19:37:00,3.8,-1.5,30.09,WNW,297,3.0,11.0,78,0.00,,,0.00,vanprod-2.3,2013-01-13 01:37:00,
2013-01-12 19:42:00,3.8,-2.1,30.08,NW,315,5.0,5.0,76,0.00,,,0.00,vanprod-2.3,2013-01-13 01:42:00,
2013-01-12 19:47:00,3.6,-2.3,30.09,WNW,296,3.0,5.0,76,0.00,,,0.00,vanprod-2.3,2013-01-13 01:47:00,
2013-01-12 19:52:00,3.6,-2.3,30.09,NW,320,2.0,3.0,76,0.00,,,0.00,vanprod-2.3,2013-01-13 01:52:00,
2013-01-12 19:57:00,3.6,-2.3,30.09,WNW,301,3.0,3.0,76,0.00,,,0.00,vanprod-2.3,2013-01-13 01:57:00,
2013-01-12 20:02:00,3.6,-2.3,30.09,NNW,327,3.0,3.0,76,0.00,,,0.00,vanprod-2.3,2013-01-13 02:02:00,
2013-01-12 20:07:00,3.6,-2.5,30.08,NW,323,3.0,6.0,75,0.00,,,0.00,vanprod-2.3,2013-01-13 02:07:00,
2013-01-12 20:12:00,3.4,-2.7,30.08,NNW,329,4.0,8.0,75,0.00,,,0.00,vanprod-2.3,2013-01-13 02:12:00,
2013-01-12 20:17:00,3.4,-2.7,30.08,WNW,285,4.0,4.0,75,0.00,,,0.00,vanprod-2.3,2013-01-13 02:17:00,
2013-01-12 20:22:00,3.4,-2.7,30.08,North,357,4.0,4.0,75,0.00,,,0.00,vanprod-2.3,2013-01-13 02:22:00,
2013-01-12 20:27:00,3.4,-2.7,30.08,North,0,2.0,4.0,75,0.00,,,0.00,vanprod-2.3,2013-01-13 02:27:00,
2013-01-12 20:32:00,3.4,-2.7,30.08,North,355,5.0,5.0,75,0.00,,,0.00,vanprod-2.3,2013-01-13 02:32:00,
2013-01-12 20:37:00,3.2,-2.9,30.09,North,356,3.0,3.0,75,0.00,,,0.00,vanprod-2.3,2013-01-13 02:37:00,
2013-01-12 20:42:00,3.2,-2.9,30.09,NW,319,2.0,3.0,75,0.00,,,0.00,vanprod-2.3,2013-01-13 02:42:00,
2013-01-12 20:47:00,3.2,-2.6,30.09,WNW,288,1.0,2.0,76,0.00,,,0.00,vanprod-2.3,2013-01-13 02:47:00,
2013-01-12 20:52:00,3.2,-2.6,30.09,WNW,288,2.0,2.0,76,0.00,,,0.00,vanprod-2.3,2013-01-13 02:52:00,
2013-01-12 20:57:00,3.2,-2.4,30.09,WNW,295,3.0,4.0,77,0.00,,,0.00,vanprod-2.3,2013-01-13 02:57:00,
2013-01-12 21:02:00,3.2,-2.4,30.09,WNW,302,2.0,3.0,77,0.00,,,0.00,vanprod-2.3,2013-01-13 03:02:00,
2013-01-12 21:07:00,3.2,-2.4,30.09,WNW,302,2.0,3.0,77,0.00,,,0.00,vanprod-2.3,2013-01-13 03:07:00,
2013-01-12 21:12:00,3.4,-2.2,30.09,WNW,301,3.0,8.0,77,0.00,,,0.00,vanprod-2.3,2013-01-13 03:12:00,
2013-01-12 21:17:00,3.6,-2.0,30.09,NNW,331,3.0,6.0,77,0.00,,,0.00,vanprod-2.3,2013-01-13 03:17:00,
2013-01-12 21:22:00,3.6,-2.0,30.09,NW,306,2.0,2.0,77,0.00,,,0.00,vanprod-2.3,2013-01-13 03:22:00,
2013-01-12 21:27:00,3.8,-1.8,30.09,NNW,339,1.0,1.0,77,0.00,,,0.00,vanprod-2.3,2013-01-13 03:27:00,
2013-01-12 21:32:00,4.0,-1.6,30.10,NW,308,6.0,11.0,77,0.00,,,0.00,vanprod-2.3,2013-01-13 03:32:00,
2013-01-12 21:37:00,4.2,-1.4,30.10,West,261,4.0,4.0,77,0.00,,,0.00,vanprod-2.3,2013-01-13 03:37:00,
2013-01-12 21:42:00,4.2,-2.0,30.10,NW,308,5.0,11.0,75,0.00,,,0.00,vanprod-2.3,2013-01-13 03:42:00,
2013-01-12 21:47:00,4.2,-2.2,30.10,North,354,3.0,3.0,74,0.00,,,0.00,vanprod-2.3,2013-01-13 03:47:00,
2013-01-12 21:52:00,4.0,-2.7,30.10,North,350,4.0,7.0,73,0.00,,,0.00,vanprod-2.3,2013-01-13 03:52:00,
2013-01-12 21:57:00,4.0,-3.0,30.10,NNW,330,4.0,5.0,72,0.00,,,0.00,vanprod-2.3,2013-01-13 03:57:00,
2013-01-12 22:02:00,4.0,-3.0,30.10,NNW,343,4.0,6.0,72,0.00,,,0.00,vanprod-2.3,2013-01-13 04:02:00,
2013-01-12 22:07:00,3.8,-3.2,30.09,North,351,5.0,7.0,72,0.00,,,0.00,vanprod-2.3,2013-01-13 04:07:00,
2013-01-12 22:12:00,3.8,-2.9,30.09,North,355,3.0,4.0,73,0.00,,,0.00,vanprod-2.3,2013-01-13 04:12:00,
2013-01-12 22:17:00,3.8,-2.6,30.09,NNW,329,3.0,6.0,74,0.00,,,0.00,vanprod-2.3,2013-01-13 04:17:00,
2013-01-12 22:22:00,4.0,-2.4,30.09,NW,315,2.0,3.0,74,0.00,,,0.00,vanprod-2.3,2013-01-13 04:22:00,
2013-01-12 22:27:00,4.0,-2.4,30.09,NW,309,5.0,6.0,74,0.00,,,0.00,vanprod-2.3,2013-01-13 04:27:00,
2013-01-12 22:32:00,4.0,-2.1,30.09,NW,317,4.0,9.0,75,0.00,,,0.00,vanprod-2.3,2013-01-13 04:32:00,
2013-01-12 22:37:00,4.0,-1.9,30.09,NW,323,2.0,3.0,76,0.00,,,0.00,vanprod-2.3,2013-01-13 04:37:00,
2013-01-12 22:42:00,4.0,-1.9,30.09,NNW,339,3.0,4.0,76,0.00,,,0.00,vanprod-2.3,2013-01-13 04:42:00,
2013-01-12 22:47:00,4.0,-1.9,30.09,North,349,4.0,13.0,76,0.00,,,0.00,vanprod-2.3,2013-01-13 04:47:00,
2013-01-12 22:52:00,3.8,-2.6,30.09,NW,311,6.0,9.0,74,0.00,,,0.00,vanprod-2.3,2013-01-13 04:52:00,
2013-01-12 22:57:00,3.6,-2.8,30.08,NW,321,5.0,6.0,74,0.00,,,0.00,vanprod-2.3,2013-01-13 04:57:00,
2013-01-12 23:00:00,3.6,-2.8,30.09,NW,317,5.0,7.0,74,0.00,,,0.00,vanprod-2.3,2013-01-13 05:00:00,
2013-01-12 23:01:00,3.6,-2.8,30.09,NW,307,4.0,4.0,74,0.00,,,0.00,vanprod-2.3,2013-01-13 05:01:00,
2013-01-12 23:03:00,3.6,-2.8,30.09,NNW,332,3.0,3.0,74,0.00,,,0.00,vanprod-2.3,2013-01-13 05:03:00,
2013-01-12 23:08:00,3.6,-2.8,30.09,NW,319,3.0,4.0,74,0.00,,,0.00,vanprod-2.3,2013-01-13 05:08:00,
2013-01-12 23:13:00,3.6,-2.5,30.09,NNW,340,4.0,4.0,75,0.00,,,0.00,vanprod-2.3,2013-01-13 05:13:00,
2013-01-12 23:18:00,3.6,-2.5,30.10,NW,304,4.0,4.0,75,0.00,,,0.00,vanprod-2.3,2013-01-13 05:18:00,
2013-01-12 23:23:00,3.4,-3.0,30.09,North,355,2.0,4.0,74,0.00,,,0.00,vanprod-2.3,2013-01-13 05:23:00,
2013-01-12 23:28:00,3.4,-3.0,30.09,North,353,5.0,5.0,74,0.00,,,0.00,vanprod-2.3,2013-01-13 05:28:00,
2013-01-12 23:33:00,3.2,-3.2,30.09,NW,315,4.0,6.0,74,0.00,,,0.00,vanprod-2.3,2013-01-13 05:33:00,
2013-01-12 23:38:00,3.2,-3.2,30.09,North,353,4.0,4.0,74,0.00,,,0.00,vanprod-2.3,2013-01-13 05:38:00,
2013-01-12 23:43:00,3.2,-3.2,30.09,NNW,329,3.0,3.0,74,0.00,,,0.00,vanprod-2.3,2013-01-13 05:43:00,
2013-01-12 23:48:00,3.4,-3.0,30.09,NNW,332,3.0,11.0,74,0.00,,,0.00,vanprod-2.3,2013-01-13 05:48:00,
2013-01-12 23:53:00,3.4,-2.7,30.10,NW,307,2.0,5.0,75,0.00,,,0.00,vanprod-2.3,2013-01-13 05:53:00,
2013-01-12 23:58:00,3.4,-2.7,30.10,NNW,340,4.0,4.0,75,0.00,,,0.00,vanprod-2.3,2013-01-13 05:58:00,